Time;durP1;ratioP1;P1;durP2;ratioP2;P2;SDS_P1;SDS_P2;PMS_P1;PMS_P2;Temp;Humidity;BMP_temperature;BMP_pressure;BME280_temperature;BME280_humidity;BME280_pressure;Samples;Min_cycle;Max_cycle;Signal;HPM_P1;HPM_P2
2023/10/25 00:00:53;;;;;;;14.10;7.18;;;;;;;;;;5034957;28;25058;-60
2023/10/25 00:03:19;;;;;;;16.63;8.00;;;;;;;;;;5038660;28;25161;-61
2023/10/25 00:05:46;;;;;;;15.48;8.77;;;;;;;;;;5045342;28;25093;-60
2023/10/25 00:08:11;;;;;;;15.70;7.82;;;;;;;;;;5042009;28;25070;-60
2023/10/25 00:10:38;;;;;;;15.70;8.02;;;;;;;;;;5042301;28;25083;-60
2023/10/25 00:13:03;;;;;;;21.52;8.73;;;;;;;;;;5045845;28;25085;-60
2023/10/25 00:15:31;;;;;;;13.60;7.97;;;;;;;;;;5026710;28;25098;-60
2023/10/25 00:17:56;;;;;;;14.70;8.15;;;;;;;;;;5025862;28;25065;-59
2023/10/25 00:20:22;;;;;;;17.30;7.95;;;;;;;;;;5024896;28;25055;-61
2023/10/25 00:22:48;;;;;;;20.13;8.15;;;;;;;;;;5024153;28;25071;-60
2023/10/25 00:25:14;;;;;;;11.93;7.95;;;;;;;;;;5025564;28;25081;-60
2023/10/25 00:27:40;;;;;;;18.48;8.88;;;;;;;;;;5014252;28;25067;-62
2023/10/25 00:30:07;;;;;;;17.92;9.13;;;;;;;;;;5032561;28;25457;-60
2023/10/25 00:32:33;;;;;;;15.35;9.07;;;;;;;;;;5044560;28;25074;-61
2023/10/25 00:34:58;;;;;;;16.90;8.88;;;;;;;;;;5039867;28;25137;-59
2023/10/25 00:37:24;;;;;;;17.17;8.70;;;;;;;;;;5042022;28;25065;-60
2023/10/25 00:39:50;;;;;;;15.27;8.93;;;;;;;;;;5043905;28;25084;-59
2023/10/25 00:42:16;;;;;;;12.63;7.93;;;;;;;;;;5039504;28;25068;-59
2023/10/25 00:44:42;;;;;;;15.50;9.23;;;;;;;;;;5039253;28;25051;-60
2023/10/25 00:47:08;;;;;;;16.30;9.18;;;;;;;;;;5036057;28;25064;-60
2023/10/25 00:49:35;;;;;;;15.88;9.52;;;;;;;;;;5039903;28;25078;-59
2023/10/25 00:52:01;;;;;;;14.75;8.23;;;;;;;;;;5045549;28;25357;-59
2023/10/25 00:54:27;;;;;;;19.33;8.38;;;;;;;;;;5041600;28;25085;-60
2023/10/25 00:56:55;;;;;;;14.30;8.98;;;;;;;;;;5038813;28;25142;-59
2023/10/25 00:59:22;;;;;;;19.77;9.68;;;;;;;;;;5036172;28;25076;-60
2023/10/25 01:01:48;;;;;;;14.65;8.77;;;;;;;;;;5042903;28;25091;-61
2023/10/25 01:04:14;;;;;;;15.93;9.23;;;;;;;;;;5043191;28;25119;-60
2023/10/25 01:06:40;;;;;;;14.38;8.32;;;;;;;;;;5025660;28;25152;-60
2023/10/25 01:09:06;;;;;;;14.32;9.43;;;;;;;;;;5032865;28;25083;-59
2023/10/25 01:11:32;;;;;;;21.23;9.82;;;;;;;;;;5044686;28;25132;-59
2023/10/25 01:13:58;;;;;;;17.10;9.48;;;;;;;;;;5047307;28;25058;-59
2023/10/25 01:16:24;;;;;;;14.32;7.75;;;;;;;;;;5051356;28;25085;-59
2023/10/25 01:18:50;;;;;;;14.18;9.23;;;;;;;;;;5046499;28;25063;-60
2023/10/25 01:21:16;;;;;;;15.88;10.10;;;;;;;;;;5049357;28;25054;-60
2023/10/25 01:23:42;;;;;;;14.82;9.05;;;;;;;;;;5037720;28;25076;-60
2023/10/25 01:26:08;;;;;;;16.77;9.48;;;;;;;;;;5046747;28;25108;-59
2023/10/25 01:28:34;;;;;;;14.25;9.32;;;;;;;;;;5042567;28;25090;-60
2023/10/25 01:31:00;;;;;;;19.13;10.23;;;;;;;;;;5039579;28;25063;-60
2023/10/25 01:33:26;;;;;;;22.77;10.13;;;;;;;;;;5033027;28;25077;-60
2023/10/25 01:35:52;;;;;;;15.90;8.45;;;;;;;;;;5035152;28;25064;-59
2023/10/25 01:38:18;;;;;;;16.02;10.02;;;;;;;;;;5038790;28;25083;-59
2023/10/25 01:40:44;;;;;;;12.70;6.80;;;;;;;;;;5045882;28;25072;-60
2023/10/25 01:43:10;;;;;;;12.32;9.55;;;;;;;;;;5038719;28;25050;-60
2023/10/25 01:45:36;;;;;;;12.55;8.43;;;;;;;;;;5037052;28;25064;-61
2023/10/25 01:48:02;;;;;;;19.77;9.27;;;;;;;;;;5038559;28;25061;-60
2023/10/25 01:50:28;;;;;;;19.15;9.07;;;;;;;;;;5038938;28;25127;-59
2023/10/25 01:52:54;;;;;;;16.60;8.52;;;;;;;;;;5046040;28;25181;-59
2023/10/25 01:55:20;;;;;;;15.57;8.82;;;;;;;;;;5046579;28;25062;-60
2023/10/25 01:57:46;;;;;;;20.73;8.43;;;;;;;;;;5045995;28;25079;-60
2023/10/25 02:00:12;;;;;;;19.98;8.80;;;;;;;;;;5041152;28;25124;-60
2023/10/25 02:02:38;;;;;;;14.02;8.52;;;;;;;;;;5042125;28;25069;-59
2023/10/25 02:05:04;;;;;;;17.38;6.82;;;;;;;;;;5043354;28;25066;-59
2023/10/25 02:07:30;;;;;;;15.23;8.93;;;;;;;;;;5038593;28;25079;-59
2023/10/25 02:09:56;;;;;;;19.77;8.85;;;;;;;;;;5044166;28;25129;-59
2023/10/25 02:12:22;;;;;;;13.55;8.18;;;;;;;;;;5043457;28;25078;-61
2023/10/25 02:14:48;;;;;;;12.65;9.32;;;;;;;;;;5042872;28;25063;-60
2023/10/25 02:17:14;;;;;;;17.00;9.15;;;;;;;;;;5041130;28;25087;-59
2023/10/25 02:19:41;;;;;;;17.52;9.57;;;;;;;;;;5044430;28;25158;-60
2023/10/25 02:22:07;;;;;;;14.10;8.00;;;;;;;;;;5043597;28;25148;-61
2023/10/25 02:24:33;;;;;;;21.95;9.43;;;;;;;;;;5040931;28;25097;-60
2023/10/25 02:26:58;;;;;;;14.38;9.30;;;;;;;;;;5037684;28;25132;-60
2023/10/25 02:29:24;;;;;;;19.00;9.52;;;;;;;;;;5048722;28;25091;-59
2023/10/25 02:31:51;;;;;;;16.92;10.38;;;;;;;;;;5041609;28;25053;-59
2023/10/25 02:34:17;;;;;;;19.42;10.88;;;;;;;;;;5044126;28;25064;-58
2023/10/25 02:36:43;;;;;;;15.90;10.05;;;;;;;;;;5046259;28;25131;-59
2023/10/25 02:39:10;;;;;;;17.30;10.30;;;;;;;;;;5039247;28;25064;-59
2023/10/25 02:41:36;;;;;;;19.45;10.07;;;;;;;;;;5043713;28;25047;-60
2023/10/25 02:44:02;;;;;;;14.55;9.93;;;;;;;;;;5045420;28;25135;-59
2023/10/25 02:46:28;;;;;;;16.35;9.77;;;;;;;;;;5047781;28;25139;-60
2023/10/25 02:48:54;;;;;;;17.33;9.30;;;;;;;;;;5046353;28;25138;-60
2023/10/25 02:51:20;;;;;;;18.27;10.38;;;;;;;;;;5044858;28;25054;-60
2023/10/25 02:53:46;;;;;;;16.77;9.88;;;;;;;;;;5043934;28;25074;-60
2023/10/25 02:56:12;;;;;;;20.08;11.48;;;;;;;;;;5047743;28;25088;-60
2023/10/25 02:58:38;;;;;;;15.20;9.20;;;;;;;;;;5047559;28;25084;-60
2023/10/25 03:01:05;;;;;;;24.48;9.45;;;;;;;;;;5049071;28;25063;-61
2023/10/25 03:03:31;;;;;;;16.70;9.95;;;;;;;;;;5048112;28;25052;-61
2023/10/25 03:05:58;;;;;;;16.08;9.82;;;;;;;;;;5047506;28;25083;-59
2023/10/25 03:08:24;;;;;;;16.95;9.52;;;;;;;;;;5050114;28;25106;-60
2023/10/25 03:10:50;;;;;;;16.58;9.48;;;;;;;;;;5049203;28;25136;-61
2023/10/25 03:13:16;;;;;;;19.08;9.70;;;;;;;;;;5046259;28;25061;-60
2023/10/25 03:15:42;;;;;;;16.35;10.18;;;;;;;;;;5047834;28;25069;-61
2023/10/25 03:18:08;;;;;;;15.10;9.40;;;;;;;;;;5046102;28;25104;-59
2023/10/25 03:20:35;;;;;;;16.02;9.07;;;;;;;;;;5040034;28;25126;-59
2023/10/25 03:23:01;;;;;;;16.48;9.65;;;;;;;;;;5050022;28;25072;-60
2023/10/25 03:25:27;;;;;;;13.60;9.60;;;;;;;;;;5046369;28;25052;-59
2023/10/25 03:27:52;;;;;;;14.90;8.77;;;;;;;;;;5046258;28;25161;-60
2023/10/25 03:30:18;;;;;;;16.05;9.10;;;;;;;;;;5048617;28;25110;-60
2023/10/25 03:32:45;;;;;;;13.90;9.05;;;;;;;;;;5042925;28;25152;-59
2023/10/25 03:35:11;;;;;;;16.33;9.27;;;;;;;;;;5045565;28;25145;-60
2023/10/25 03:37:39;;;;;;;17.75;9.80;;;;;;;;;;5048660;28;25070;-60
2023/10/25 03:40:09;;;;;;;18.05;10.40;;;;;;;;;;5044483;28;25072;-59
2023/10/25 03:42:35;;;;;;;15.30;9.80;;;;;;;;;;5041690;28;25061;-60
2023/10/25 03:45:01;;;;;;;15.02;9.80;;;;;;;;;;5050153;28;25102;-59
2023/10/25 03:47:27;;;;;;;15.25;9.18;;;;;;;;;;5039769;28;25140;-60
2023/10/25 03:49:53;;;;;;;17.35;9.90;;;;;;;;;;5044233;28;25188;-59
2023/10/25 03:52:19;;;;;;;13.82;9.60;;;;;;;;;;5044432;28;25141;-60
2023/10/25 03:54:45;;;;;;;13.35;8.32;;;;;;;;;;5046586;28;25078;-61
2023/10/25 03:57:11;;;;;;;13.82;8.18;;;;;;;;;;5046425;28;25147;-60
2023/10/25 03:59:37;;;;;;;12.77;7.80;;;;;;;;;;5044129;28;25057;-59
2023/10/25 04:02:03;;;;;;;13.98;7.53;;;;;;;;;;5043245;28;25033;-61
2023/10/25 04:04:29;;;;;;;13.23;7.90;;;;;;;;;;5050594;28;25077;-59
2023/10/25 04:06:56;;;;;;;14.30;7.85;;;;;;;;;;5040122;28;25082;-60
2023/10/25 04:09:22;;;;;;;11.35;6.90;;;;;;;;;;5043118;28;25093;-60
2023/10/25 04:11:48;;;;;;;10.02;6.72;;;;;;;;;;5043005;28;25094;-59
2023/10/25 04:14:14;;;;;;;13.43;7.70;;;;;;;;;;5046077;28;25082;-61
2023/10/25 04:16:40;;;;;;;14.68;7.80;;;;;;;;;;5047073;28;25080;-60
2023/10/25 04:19:06;;;;;;;14.25;7.28;;;;;;;;;;5048777;28;25079;-59
2023/10/25 04:21:32;;;;;;;16.15;7.20;;;;;;;;;;5045357;28;25092;-60
2023/10/25 04:23:58;;;;;;;11.45;7.63;;;;;;;;;;5040911;28;25048;-60
2023/10/25 04:26:24;;;;;;;12.68;7.25;;;;;;;;;;5043100;28;25065;-60
2023/10/25 04:28:50;;;;;;;9.32;6.28;;;;;;;;;;5044165;28;25067;-61
2023/10/25 04:31:17;;;;;;;10.75;6.95;;;;;;;;;;5038322;28;25054;-59
2023/10/25 04:33:43;;;;;;;14.55;6.95;;;;;;;;;;5039887;28;25064;-60
2023/10/25 04:36:09;;;;;;;16.55;8.18;;;;;;;;;;5044685;28;25074;-59
2023/10/25 04:38:35;;;;;;;16.65;7.38;;;;;;;;;;5041377;28;25086;-61
2023/10/25 04:41:02;;;;;;;13.93;7.20;;;;;;;;;;5041026;28;25095;-59
2023/10/25 04:43:28;;;;;;;19.67;8.23;;;;;;;;;;5040605;28;25070;-61
2023/10/25 04:45:54;;;;;;;14.95;7.45;;;;;;;;;;5044770;28;25131;-61
2023/10/25 04:48:20;;;;;;;13.20;8.27;;;;;;;;;;5040986;28;25078;-60
2023/10/25 04:50:46;;;;;;;15.77;7.65;;;;;;;;;;5045912;28;25114;-60
2023/10/25 04:53:12;;;;;;;17.75;8.27;;;;;;;;;;5046691;28;25096;-59
2023/10/25 04:55:38;;;;;;;16.65;8.40;;;;;;;;;;5048951;28;25053;-59
2023/10/25 04:58:05;;;;;;;16.70;7.25;;;;;;;;;;5047075;28;25052;-59
2023/10/25 05:00:31;;;;;;;17.67;6.65;;;;;;;;;;5044163;28;25121;-60
2023/10/25 05:02:58;;;;;;;13.13;7.80;;;;;;;;;;5044585;28;25160;-59
2023/10/25 05:05:24;;;;;;;13.25;7.35;;;;;;;;;;5040681;28;25071;-60
2023/10/25 05:07:51;;;;;;;14.75;7.80;;;;;;;;;;5041990;28;25139;-60
2023/10/25 05:10:17;;;;;;;17.95;8.18;;;;;;;;;;5043447;28;25060;-60
2023/10/25 05:12:44;;;;;;;13.60;8.20;;;;;;;;;;5040892;28;25152;-59
2023/10/25 05:15:11;;;;;;;18.38;7.90;;;;;;;;;;5040193;28;25088;-59
2023/10/25 05:17:40;;;;;;;10.13;6.70;;;;;;;;;;5039309;28;25078;-60
2023/10/25 05:20:07;;;;;;;14.18;8.07;;;;;;;;;;5035395;28;25058;-60
2023/10/25 05:22:37;;;;;;;11.98;6.68;;;;;;;;;;5039994;28;25102;-60
2023/10/25 05:25:03;;;;;;;10.70;6.30;;;;;;;;;;5038571;28;25056;-60
2023/10/25 05:27:29;;;;;;;10.63;6.35;;;;;;;;;;5044219;28;25070;-61
2023/10/25 05:29:59;;;;;;;12.00;6.57;;;;;;;;;;5044643;28;25142;-60
2023/10/25 05:32:26;;;;;;;8.50;5.97;;;;;;;;;;5041992;28;25069;-59
2023/10/25 05:34:52;;;;;;;9.63;5.28;;;;;;;;;;5039506;28;25148;-60
2023/10/25 05:37:18;;;;;;;9.88;6.35;;;;;;;;;;5039413;28;25094;-59
2023/10/25 05:39:44;;;;;;;13.38;6.93;;;;;;;;;;5037616;28;25054;-59
2023/10/25 05:42:12;;;;;;;8.68;5.95;;;;;;;;;;5042909;28;25100;-59
2023/10/25 05:44:38;;;;;;;15.23;6.20;;;;;;;;;;5041343;28;25111;-60
2023/10/25 05:47:04;;;;;;;11.82;6.13;;;;;;;;;;5043331;28;25138;-60
2023/10/25 05:49:30;;;;;;;6.85;5.60;;;;;;;;;;5044508;28;25060;-60
2023/10/25 05:51:57;;;;;;;16.35;6.00;;;;;;;;;;5041593;28;25053;-60
2023/10/25 05:54:23;;;;;;;11.07;5.57;;;;;;;;;;5045940;28;25147;-60
2023/10/25 05:56:49;;;;;;;9.65;5.35;;;;;;;;;;5045651;28;25129;-59
2023/10/25 05:59:16;;;;;;;10.60;5.13;;;;;;;;;;5041649;28;25066;-59
2023/10/25 06:02:11;;;;;;;13.07;4.95;;;;;;;;;;5045319;28;25066;-60
2023/10/25 06:04:38;;;;;;;11.80;5.85;;;;;;;;;;5044223;28;25102;-60
2023/10/25 06:07:04;;;;;;;9.00;5.65;;;;;;;;;;5044734;28;25086;-59
2023/10/25 06:09:30;;;;;;;11.07;6.20;;;;;;;;;;5045808;28;25133;-59
2023/10/25 06:11:56;;;;;;;8.45;6.50;;;;;;;;;;5043911;28;25072;-59
2023/10/25 06:14:22;;;;;;;11.02;6.80;;;;;;;;;;5044086;28;25134;-59
2023/10/25 06:16:48;;;;;;;11.82;6.75;;;;;;;;;;5041302;28;25069;-60
2023/10/25 06:19:14;;;;;;;10.02;6.07;;;;;;;;;;5044073;28;25049;-60
2023/10/25 06:21:40;;;;;;;15.20;6.53;;;;;;;;;;5043944;28;25094;-59
2023/10/25 06:24:06;;;;;;;13.07;6.22;;;;;;;;;;5041832;28;25149;-59
2023/10/25 06:26:32;;;;;;;15.30;6.60;;;;;;;;;;5043180;28;25133;-60
2023/10/25 06:28:59;;;;;;;12.95;7.10;;;;;;;;;;5044247;28;25084;-60
2023/10/25 06:31:25;;;;;;;12.27;6.97;;;;;;;;;;5034107;28;25094;-58
2023/10/25 06:33:51;;;;;;;14.95;7.53;;;;;;;;;;5039900;28;25154;-60
2023/10/25 06:36:17;;;;;;;14.30;7.70;;;;;;;;;;5040099;28;25059;-60
2023/10/25 06:38:43;;;;;;;13.00;7.10;;;;;;;;;;5034701;28;25088;-59
2023/10/25 06:41:18;;;;;;;14.70;7.75;;;;;;;;;;5025422;28;25092;-60
2023/10/25 06:43:45;;;;;;;16.25;7.50;;;;;;;;;;5038998;28;25068;-60
2023/10/25 06:46:14;;;;;;;13.75;7.60;;;;;;;;;;5040063;28;25055;-60
2023/10/25 06:48:40;;;;;;;15.13;8.02;;;;;;;;;;5042720;28;25109;-59
2023/10/25 06:51:06;;;;;;;15.90;7.15;;;;;;;;;;5043489;28;25144;-59
2023/10/25 06:53:32;;;;;;;14.52;8.25;;;;;;;;;;5041945;28;25076;-59
2023/10/25 06:55:58;;;;;;;15.43;8.27;;;;;;;;;;5040140;28;25121;-60
2023/10/25 06:58:25;;;;;;;12.50;7.90;;;;;;;;;;5038831;28;25101;-60
2023/10/25 07:00:51;;;;;;;17.15;8.57;;;;;;;;;;5038279;28;25052;-60
2023/10/25 07:03:18;;;;;;;15.02;7.22;;;;;;;;;;5037749;28;25066;-61
2023/10/25 07:05:45;;;;;;;11.32;7.60;;;;;;;;;;5040376;28;25140;-60
2023/10/25 07:08:11;;;;;;;18.65;7.13;;;;;;;;;;5039747;28;25078;-60
2023/10/25 07:10:37;;;;;;;8.20;6.60;;;;;;;;;;5042568;28;25099;-59
2023/10/25 07:13:03;;;;;;;10.88;6.93;;;;;;;;;;5043477;28;25144;-59
2023/10/25 07:15:31;;;;;;;9.63;6.63;;;;;;;;;;5026727;28;25058;-60
2023/10/25 07:17:57;;;;;;;12.70;7.35;;;;;;;;;;5023464;28;25067;-60
2023/10/25 07:20:23;;;;;;;15.95;6.57;;;;;;;;;;5019585;28;25143;-61
2023/10/25 07:22:49;;;;;;;9.60;7.07;;;;;;;;;;5043634;28;25103;-60
2023/10/25 07:25:15;;;;;;;10.98;7.22;;;;;;;;;;5042028;28;25120;-61
2023/10/25 07:27:41;;;;;;;12.25;7.20;;;;;;;;;;5046750;28;25154;-60
2023/10/25 07:30:07;;;;;;;12.40;6.65;;;;;;;;;;5050662;28;25115;-62
2023/10/25 07:32:35;;;;;;;16.00;7.40;;;;;;;;;;5049268;28;25154;-59
2023/10/25 07:35:00;;;;;;;13.82;7.40;;;;;;;;;;5041977;28;25069;-59
2023/10/25 07:37:26;;;;;;;14.40;7.07;;;;;;;;;;5047674;28;25087;-59
2023/10/25 07:39:52;;;;;;;14.82;6.20;;;;;;;;;;5044503;28;25069;-59
2023/10/25 07:42:18;;;;;;;10.82;5.55;;;;;;;;;;5044503;28;25075;-58
2023/10/25 07:44:44;;;;;;;11.73;6.40;;;;;;;;;;5045678;28;25085;-60
2023/10/25 07:47:10;;;;;;;13.60;6.32;;;;;;;;;;5045550;28;25074;-59
2023/10/25 07:49:36;;;;;;;14.25;6.65;;;;;;;;;;5045758;28;25061;-60
2023/10/25 07:52:03;;;;;;;9.45;6.00;;;;;;;;;;5045446;28;25136;-59
2023/10/25 07:54:29;;;;;;;10.77;4.70;;;;;;;;;;5045761;28;25096;-60
2023/10/25 07:56:55;;;;;;;9.50;5.60;;;;;;;;;;5047672;28;25066;-60
2023/10/25 07:59:20;;;;;;;13.82;5.40;;;;;;;;;;5045107;28;25072;-60
2023/10/25 08:01:47;;;;;;;8.45;5.38;;;;;;;;;;5045709;28;25114;-59
2023/10/25 08:04:13;;;;;;;8.88;5.22;;;;;;;;;;5045892;28;25064;-60
2023/10/25 08:06:40;;;;;;;16.55;5.40;;;;;;;;;;5046174;28;25046;-60
2023/10/25 08:09:06;;;;;;;10.13;6.55;;;;;;;;;;5045898;28;25084;-60
2023/10/25 08:11:36;;;;;;;12.10;6.53;;;;;;;;;;5044564;28;25129;-60
2023/10/25 08:14:02;;;;;;;19.17;7.95;;;;;;;;;;5046595;28;25105;-59
2023/10/25 08:16:28;;;;;;;20.38;8.27;;;;;;;;;;5045823;28;25051;-61
2023/10/25 08:18:54;;;;;;;16.23;8.13;;;;;;;;;;5046213;28;25060;-59
2023/10/25 08:21:20;;;;;;;13.73;7.95;;;;;;;;;;5045811;28;25057;-60
2023/10/25 08:23:51;;;;;;;20.05;7.72;;;;;;;;;;5046401;28;25075;-60
2023/10/25 08:26:17;;;;;;;22.38;9.65;;;;;;;;;;5045702;28;25055;-58
2023/10/25 08:28:43;;;;;;;6.85;4.63;;;;;;;;;;5046213;28;25133;-59
2023/10/25 08:31:13;;;;;;;11.10;5.85;;;;;;;;;;5047491;28;25074;-59
2023/10/25 08:33:39;;;;;;;12.45;7.15;;;;;;;;;;5039571;28;25055;-60
2023/10/25 08:36:05;;;;;;;13.50;7.75;;;;;;;;;;5045219;28;25162;-60
2023/10/25 08:38:31;;;;;;;12.77;6.30;;;;;;;;;;5049773;28;25088;-59
2023/10/25 08:41:07;;;;;;;11.40;6.55;;;;;;;;;;5033318;28;25059;-59
2023/10/25 08:43:33;;;;;;;14.77;5.63;;;;;;;;;;5039951;28;25085;-61
2023/10/25 08:45:59;;;;;;;10.63;6.45;;;;;;;;;;5041893;28;25063;-60
2023/10/25 08:48:25;;;;;;;11.70;7.10;;;;;;;;;;5043439;28;25103;-59
2023/10/25 08:50:52;;;;;;;14.77;7.40;;;;;;;;;;5039189;28;25060;-59
2023/10/25 08:53:22;;;;;;;15.15;7.55;;;;;;;;;;5045502;28;25056;-59
2023/10/25 08:55:51;;;;;;;16.92;7.38;;;;;;;;;;5037787;28;25087;-59
2023/10/25 08:58:18;;;;;;;13.27;6.60;;;;;;;;;;5038441;28;25064;-59
2023/10/25 09:00:44;;;;;;;11.70;5.97;;;;;;;;;;5038308;28;25150;-59
2023/10/25 09:03:30;;;;;;;8.85;6.25;;;;;;;;;;5033763;28;25061;-60
2023/10/25 09:05:56;;;;;;;11.30;8.60;;;;;;;;;;5041430;28;25167;-59
2023/10/25 09:08:24;;;;;;;17.85;8.40;;;;;;;;;;5036092;28;25100;-59
2023/10/25 09:10:56;;;;;;;9.73;6.65;;;;;;;;;;5043064;28;25054;-59
2023/10/25 09:13:22;;;;;;;;;;;;;;;;;;5045301;28;25073;-61
2023/10/25 09:15:48;;;;;;;19.15;7.10;;;;;;;;;;5039549;28;24074;-60
2023/10/25 09:18:15;;;;;;;21.45;10.32;;;;;;;;;;5044201;28;25052;-61
2023/10/25 09:20:40;;;;;;;19.25;8.68;;;;;;;;;;5038092;28;25076;-62
2023/10/25 09:23:10;;;;;;;12.82;7.55;;;;;;;;;;5042407;28;25054;-61
2023/10/25 09:25:39;;;;;;;15.45;8.70;;;;;;;;;;5044798;28;25067;-61
2023/10/25 09:28:15;;;;;;;11.65;9.05;;;;;;;;;;5042702;28;25119;-60
2023/10/25 09:30:41;;;;;;;13.82;8.60;;;;;;;;;;5039408;28;25096;-61
2023/10/25 09:33:07;;;;;;;10.93;8.95;;;;;;;;;;5037542;28;25106;-64
2023/10/25 09:35:33;;;;;;;11.13;9.27;;;;;;;;;;5032824;28;25123;-60
2023/10/25 09:37:59;;;;;;;17.48;9.15;;;;;;;;;;5039981;28;25072;-60
2023/10/25 09:40:26;;;;;;;16.13;10.88;;;;;;;;;;5038803;28;25045;-61
2023/10/25 09:42:52;;;;;;;17.02;9.73;;;;;;;;;;5029598;28;25062;-60
2023/10/25 09:45:24;;;;;;;14.05;10.05;;;;;;;;;;5039306;28;25065;-60
2023/10/25 09:47:53;;;;;;;17.77;10.93;;;;;;;;;;5042754;28;25088;-60
2023/10/25 09:50:27;;;;;;;15.18;9.70;;;;;;;;;;5037396;28;25073;-60
2023/10/25 09:52:59;;;;;;;12.90;10.27;;;;;;;;;;5041911;28;25043;-59
2023/10/25 09:55:26;;;;;;;16.52;11.43;;;;;;;;;;5036953;28;25085;-62
2023/10/25 09:57:53;;;;;;;16.17;12.23;;;;;;;;;;5040958;28;25098;-60
2023/10/25 10:00:19;;;;;;;20.15;13.68;;;;;;;;;;5042058;28;25064;-59
2023/10/25 10:03:00;;;;;;;13.38;11.98;;;;;;;;;;5043481;28;25072;-59
2023/10/25 10:05:28;;;;;;;19.73;14.75;;;;;;;;;;5038932;28;25051;-60
2023/10/25 10:07:54;;;;;;;16.88;14.40;;;;;;;;;;5032268;28;25163;-59
2023/10/25 10:10:27;;;;;;;15.95;14.20;;;;;;;;;;5039348;28;25061;-60
2023/10/25 10:12:53;;;;;;;19.55;14.75;;;;;;;;;;5034291;28;25058;-61
2023/10/25 10:15:19;;;;;;;19.85;15.50;;;;;;;;;;5043769;28;25121;-60
2023/10/25 10:17:45;;;;;;;25.92;17.75;;;;;;;;;;5026162;28;25052;-61
2023/10/25 10:20:26;;;;;;;21.15;18.95;;;;;;;;;;5035297;28;25055;-61
2023/10/25 10:23:02;;;;;;;24.55;20.25;;;;;;;;;;5043213;28;25064;-61
2023/10/25 10:25:50;;;;;;;25.05;19.92;;;;;;;;;;5036895;28;25080;-60
2023/10/25 10:28:16;;;;;;;22.30;19.88;;;;;;;;;;5040106;28;25062;-60
2023/10/25 10:30:42;;;;;;;23.77;21.30;;;;;;;;;;5036571;28;25052;-60
2023/10/25 10:33:09;;;;;;;25.00;19.95;;;;;;;;;;5043308;28;24979;-61
2023/10/25 10:35:35;;;;;;;23.88;21.63;;;;;;;;;;5037009;28;25143;-61
2023/10/25 10:38:03;;;;;;;22.23;20.02;;;;;;;;;;5036542;28;25068;-60
2023/10/25 10:40:29;;;;;;;25.65;23.35;;;;;;;;;;5043802;28;25053;-60
2023/10/25 10:42:56;;;;;;;24.88;22.27;;;;;;;;;;5037651;28;25066;-60
2023/10/25 10:45:22;;;;;;;24.65;22.42;;;;;;;;;;5040219;28;25088;-60
2023/10/25 10:47:53;;;;;;;24.92;22.40;;;;;;;;;;5031969;28;25101;-61
2023/10/25 10:50:23;;;;;;;25.05;22.60;;;;;;;;;;5042231;28;25057;-61
2023/10/25 10:52:50;;;;;;;25.42;22.70;;;;;;;;;;5044395;28;25059;-59
2023/10/25 10:55:16;;;;;;;25.90;23.27;;;;;;;;;;5037540;28;25111;-61
2023/10/25 10:57:43;;;;;;;27.50;24.92;;;;;;;;;;5033416;28;25153;-59
2023/10/25 11:00:10;;;;;;;27.08;24.73;;;;;;;;;;5041865;28;25057;-60
2023/10/25 11:02:39;;;;;;;26.88;24.20;;;;;;;;;;5039261;28;25060;-61
2023/10/25 11:05:05;;;;;;;31.30;27.17;;;;;;;;;;5041978;28;25123;-62
2023/10/25 11:07:31;;;;;;;30.20;27.05;;;;;;;;;;5042030;28;25073;-63
2023/10/25 11:09:57;;;;;;;32.40;29.23;;;;;;;;;;5040061;28;25060;-59
2023/10/25 11:12:24;;;;;;;34.25;31.30;;;;;;;;;;5045528;28;25156;-60
2023/10/25 11:14:50;;;;;;;32.63;29.92;;;;;;;;;;5041005;28;25101;-60
2023/10/25 11:17:16;;;;;;;32.88;30.13;;;;;;;;;;5034924;28;25065;-60
2023/10/25 11:19:46;;;;;;;35.65;32.53;;;;;;;;;;5043874;28;25080;-61
2023/10/25 11:22:12;;;;;;;35.13;32.22;;;;;;;;;;5041927;28;25065;-61
2023/10/25 11:24:38;;;;;;;39.58;35.67;;;;;;;;;;5040998;28;25050;-61
2023/10/25 11:27:04;;;;;;;36.53;33.08;;;;;;;;;;5036509;28;25063;-60
2023/10/25 11:29:34;;;;;;;36.40;33.50;;;;;;;;;;5040368;28;25105;-67
2023/10/25 11:32:06;;;;;;;37.33;33.72;;;;;;;;;;5047302;28;25076;-61
2023/10/25 11:34:33;;;;;;;37.28;33.80;;;;;;;;;;5039489;28;25082;-60
2023/10/25 11:37:00;;;;;;;34.97;31.90;;;;;;;;;;5033575;28;25057;-60
2023/10/25 11:39:28;;;;;;;37.08;33.40;;;;;;;;;;5043267;28;25103;-59
2023/10/25 11:41:55;;;;;;;37.05;33.78;;;;;;;;;;5035851;28;25083;-62
2023/10/25 11:44:22;;;;;;;35.33;32.35;;;;;;;;;;5047634;28;25065;-62
2023/10/25 11:46:51;;;;;;;38.63;35.15;;;;;;;;;;5049675;28;25113;-60
2023/10/25 11:49:19;;;;;;;40.03;36.72;;;;;;;;;;5047842;28;25079;-58
2023/10/25 11:51:47;;;;;;;38.00;34.45;;;;;;;;;;5043261;28;25065;-59
2023/10/25 11:54:13;;;;;;;39.55;36.15;;;;;;;;;;5049523;28;25067;-62
2023/10/25 11:56:39;;;;;;;38.30;34.90;;;;;;;;;;5039515;28;25067;-61
2023/10/25 11:59:05;;;;;;;37.25;34.03;;;;;;;;;;5044984;28;25094;-60
2023/10/25 12:01:31;;;;;;;39.92;36.45;;;;;;;;;;5040587;28;25116;-58
2023/10/25 12:03:57;;;;;;;40.42;36.80;;;;;;;;;;5039229;28;25147;-63
2023/10/25 12:06:24;;;;;;;41.10;37.47;;;;;;;;;;5046486;28;25093;-61
2023/10/25 12:08:50;;;;;;;42.53;38.65;;;;;;;;;;5039606;28;25156;-60
2023/10/25 12:11:16;;;;;;;39.80;36.30;;;;;;;;;;5045567;28;25061;-61
2023/10/25 12:13:42;;;;;;;40.75;37.00;;;;;;;;;;5045913;28;25065;-60
2023/10/25 12:16:09;;;;;;;40.15;36.90;;;;;;;;;;5045309;28;25088;-61
2023/10/25 12:18:36;;;;;;;41.97;38.22;;;;;;;;;;5048520;28;25055;-61
2023/10/25 12:21:05;;;;;;;42.25;38.65;;;;;;;;;;5047876;28;25066;-62
2023/10/25 12:23:31;;;;;;;40.67;37.13;;;;;;;;;;5040123;28;25091;-61
2023/10/25 12:25:57;;;;;;;41.40;37.78;;;;;;;;;;5041398;28;25080;-60
2023/10/25 12:28:24;;;;;;;41.05;37.55;;;;;;;;;;5033428;28;25069;-60
2023/10/25 12:30:50;;;;;;;41.67;37.88;;;;;;;;;;5036916;28;25086;-61
2023/10/25 12:33:16;;;;;;;42.88;38.97;;;;;;;;;;5046883;28;25069;-60
2023/10/25 12:35:42;;;;;;;42.88;39.03;;;;;;;;;;5038963;28;25071;-60
2023/10/25 12:38:09;;;;;;;41.17;37.70;;;;;;;;;;5042566;28;25069;-60
2023/10/25 12:40:35;;;;;;;42.60;38.90;;;;;;;;;;5039808;28;25126;-61
2023/10/25 12:43:01;;;;;;;45.67;41.67;;;;;;;;;;5039716;28;25132;-59
2023/10/25 12:45:28;;;;;;;43.63;40.00;;;;;;;;;;5041674;28;25111;-61
2023/10/25 12:47:54;;;;;;;43.47;39.83;;;;;;;;;;5039263;28;25058;-61
2023/10/25 12:50:20;;;;;;;44.67;40.97;;;;;;;;;;5046565;28;25074;-61
2023/10/25 12:52:46;;;;;;;46.97;43.03;;;;;;;;;;5053919;28;25098;-60
2023/10/25 12:55:12;;;;;;;45.58;41.60;;;;;;;;;;5040321;28;25084;-64
2023/10/25 12:57:38;;;;;;;45.25;41.45;;;;;;;;;;5043810;28;25064;-60
2023/10/25 13:00:05;;;;;;;47.80;43.55;;;;;;;;;;5047049;28;25060;-60
2023/10/25 13:02:31;;;;;;;46.78;42.42;;;;;;;;;;5043944;28;25124;-60
2023/10/25 13:04:57;;;;;;;47.47;43.13;;;;;;;;;;5043132;28;25068;-61
2023/10/25 13:07:23;;;;;;;46.20;42.13;;;;;;;;;;5043687;28;25113;-64
2023/10/25 13:09:49;;;;;;;47.08;42.53;;;;;;;;;;5040683;28;25069;-61
2023/10/25 13:12:15;;;;;;;47.25;43.08;;;;;;;;;;5039754;28;25123;-62
2023/10/25 13:14:41;;;;;;;47.13;43.13;;;;;;;;;;5045993;28;25176;-61
2023/10/25 13:17:07;;;;;;;46.47;42.53;;;;;;;;;;5039415;28;25112;-61
2023/10/25 13:19:33;;;;;;;47.30;42.80;;;;;;;;;;5042107;28;25070;-60
2023/10/25 13:21:59;;;;;;;47.50;43.17;;;;;;;;;;5046186;28;25051;-61
2023/10/25 13:24:25;;;;;;;46.97;42.78;;;;;;;;;;5045984;28;25057;-60
2023/10/25 13:26:51;;;;;;;48.60;44.33;;;;;;;;;;5039848;28;25074;-61
2023/10/25 13:29:17;;;;;;;51.65;46.65;;;;;;;;;;5040729;28;25077;-60
2023/10/25 13:31:43;;;;;;;52.38;47.72;;;;;;;;;;5043105;28;25091;-62
2023/10/25 13:34:09;;;;;;;51.90;47.30;;;;;;;;;;5045765;28;25076;-60
2023/10/25 13:36:35;;;;;;;54.75;49.47;;;;;;;;;;5042525;28;25056;-62
2023/10/25 13:39:01;;;;;;;50.03;45.58;;;;;;;;;;5041602;28;25058;-60
2023/10/25 13:41:27;;;;;;;48.63;44.13;;;;;;;;;;5043695;28;25152;-60
2023/10/25 13:43:53;;;;;;;48.25;43.80;;;;;;;;;;5044754;28;25070;-60
2023/10/25 13:46:19;;;;;;;47.10;42.65;;;;;;;;;;5043343;28;25069;-60
2023/10/25 13:48:45;;;;;;;50.33;45.80;;;;;;;;;;5037196;28;25123;-61
2023/10/25 13:51:11;;;;;;;46.97;43.03;;;;;;;;;;5044436;28;25074;-61
2023/10/25 13:53:37;;;;;;;48.20;43.40;;;;;;;;;;5044743;28;25141;-62
2023/10/25 13:56:03;;;;;;;49.90;45.05;;;;;;;;;;5043017;28;25150;-61
2023/10/25 13:58:30;;;;;;;47.33;43.20;;;;;;;;;;5045974;28;25113;-60
2023/10/25 14:00:56;;;;;;;49.05;44.65;;;;;;;;;;5043710;28;25064;-60
2023/10/25 14:03:24;;;;;;;48.30;43.75;;;;;;;;;;5043884;28;25057;-62
2023/10/25 14:05:50;;;;;;;48.40;43.95;;;;;;;;;;5044334;28;25068;-60
2023/10/25 14:08:20;;;;;;;46.83;42.35;;;;;;;;;;5044038;28;25141;-61
2023/10/25 14:10:49;;;;;;;48.45;43.78;;;;;;;;;;5046146;28;25071;-62
2023/10/25 14:13:15;;;;;;;45.95;41.80;;;;;;;;;;5046751;28;25067;-62
2023/10/25 14:15:41;;;;;;;44.95;40.75;;;;;;;;;;5047715;28;25064;-60
2023/10/25 14:18:07;;;;;;;48.58;44.25;;;;;;;;;;5047604;28;25132;-63
2023/10/25 14:20:38;;;;;;;46.03;41.95;;;;;;;;;;5045165;28;25175;-61
2023/10/25 14:23:04;;;;;;;48.80;44.33;;;;;;;;;;5044333;28;25066;-63